Time;durP1;ratioP1;P1;durP2;ratioP2;P2;SDS_P1;SDS_P2;PMS_P1;PMS_P2;Temp;Humidity;BMP_temperature;BMP_pressure;BME280_temperature;BME280_humidity;BME280_pressure;Samples;Min_cycle;Max_cycle;Signal;HPM_P1;HPM_P2
2022/08/21 06:54:25;;;;;;;7.60;2.35;;;;;;;18.54;62.25;96721.28;2101153;27;20572;-63
2022/08/21 06:55:27;;;;;;;8.65;2.70;;;;;;;18.57;61.89;96716.56;2100331;28;20194;-63
2022/08/21 06:56:29;;;;;;;10.52;3.10;;;;;;;18.67;61.14;96722.00;2097983;27;20219;-63
2022/08/21 06:57:32;;;;;;;10.27;3.17;;;;;;;18.68;60.88;96710.47;2080621;28;20616;-63
2022/08/21 06:58:33;;;;;;;14.27;3.35;;;;;;;18.69;59.60;96713.94;2079587;28;20208;-64
2022/08/21 06:59:35;;;;;;;8.32;2.78;;;;;;;18.81;59.27;96714.84;2081373;28;20670;-66
2022/08/21 07:00:44;;;;;;;10.20;3.25;;;;;;;18.92;59.24;96721.00;2082330;28;20667;-65
2022/08/21 07:01:46;;;;;;;9.70;3.40;;;;;;;19.01;58.74;96719.44;2085476;28;20220;-65
2022/08/21 07:02:47;;;;;;;9.90;4.30;;;;;;;19.12;58.56;96718.59;2091520;28;20719;-66
2022/08/21 07:03:49;;;;;;;7.45;3.50;;;;;;;19.05;59.46;96720.88;2092150;28;20198;-66
2022/08/21 07:33:08;;;;;;;13.02;3.70;;;;;;;21.19;53.06;96714.97;2085028;28;20569;-60
2022/08/21 07:34:10;;;;;;;10.10;3.78;;;;;;;21.58;51.67;96708.16;2088924;28;20678;-63
2022/08/21 07:35:11;;;;;;;15.40;3.70;;;;;;;21.27;51.89;96716.09;2091001;28;20196;-63
2022/08/21 07:36:13;;;;;;;10.98;3.08;;;;;;;21.63;51.50;96711.25;2084575;28;20195;-63
2022/08/21 07:37:15;;;;;;;8.52;3.40;;;;;;;22.10;50.34;96707.97;2085201;28;20227;-63
2022/08/21 07:38:18;;;;;;;9.30;3.28;;;;;;;22.39;49.41;96712.47;2086409;28;20257;-63
2022/08/21 07:39:20;;;;;;;12.40;3.72;;;;;;;22.42;49.73;96713.00;2086427;28;20188;-63
2022/08/21 07:40:22;;;;;;;12.48;3.75;;;;;;;21.53;51.26;96706.72;2079864;28;20200;-63
2022/08/21 07:41:28;;;;;;;8.95;2.97;;;;;;;22.13;49.72;96705.88;2081444;28;20540;-63
2022/08/21 07:42:30;;;;;;;11.30;4.28;;;;;;;20.92;51.91;96706.75;2081899;28;20587;-63
2022/08/21 07:43:31;;;;;;;14.77;4.05;;;;;;;21.35;51.55;96709.16;2084483;28;20204;-63
2022/08/21 07:44:34;;;;;;;11.02;3.20;;;;;;;21.97;49.93;96702.91;2079799;28;20196;-63
2022/08/21 08:06:34;;;;;;;11.82;4.03;;;;;;;23.45;44.95;96704.34;2105831;27;20548;-59
2022/08/21 08:07:35;;;;;;;12.73;4.35;;;;;;;23.45;45.53;96702.56;2098897;28;20200;-59
2022/08/21 08:08:37;;;;;;;9.65;4.90;;;;;;;22.57;45.97;96700.13;2096347;28;20635;-60
2022/08/21 08:09:38;;;;;;;13.60;3.40;;;;;;;22.67;46.39;96702.78;2095413;28;20191;-60
2022/08/21 08:10:41;;;;;;;11.55;4.20;;;;;;;22.97;45.86;96700.88;2098020;28;20682;-60
2022/08/21 08:11:44;;;;;;;11.77;3.28;;;;;;;23.21;45.72;96705.75;2098186;28;20223;-60
2022/08/21 08:12:46;;;;;;;9.63;3.38;;;;;;;23.39;44.70;96700.47;2099100;28;20196;-60
2022/08/21 08:13:51;;;;;;;11.18;3.75;;;;;;;23.24;44.34;96702.78;2099906;28;20191;-60
2022/08/21 08:14:52;;;;;;;13.02;3.85;;;;;;;23.33;44.99;96694.91;2100885;28;20199;-61
2022/08/21 08:15:53;;;;;;;10.73;3.13;;;;;;;23.31;45.00;96700.34;2101460;28;20195;-60
2022/08/21 08:16:55;;;;;;;8.73;3.78;;;;;;;23.33;45.19;96703.72;2099157;28;20215;-60
2022/08/21 08:17:57;;;;;;;9.55;3.53;;;;;;;23.44;44.78;96695.53;2095625;28;20192;-60
2022/08/21 08:18:58;;;;;;;9.52;3.05;;;;;;;23.37;45.16;96693.63;2098867;28;20199;-61
2022/08/21 08:20:00;;;;;;;8.73;2.85;;;;;;;23.54;44.57;96692.81;2097244;28;20199;-61
2022/08/21 08:21:02;;;;;;;12.02;4.95;;;;;;;23.51;45.46;96692.28;2097613;28;20207;-60
2022/08/21 08:22:13;;;;;;;10.20;5.03;;;;;;;23.35;45.83;96698.25;2099189;28;20230;-60
2022/08/21 08:23:15;;;;;;;15.50;7.35;;;;;;;23.01;46.29;96696.94;2099032;28;20199;-60
2022/08/21 08:45:58;;;;;;;14.82;3.40;;;;;;;24.40;41.04;96669.34;2101929;27;20550;-60
2022/08/21 08:47:00;;;;;;;11.18;3.65;;;;;;;24.31;41.41;96664.94;2084847;28;20227;-60
2022/08/21 08:48:09;;;;;;;11.55;3.92;;;;;;;24.22;41.63;96653.38;2079069;28;20192;-60
2022/08/21 08:49:26;;;;;;;13.88;3.10;;;;;;;24.57;41.89;96672.97;2078959;28;20794;-60
2022/08/21 08:50:43;;;;;;;6.90;3.25;;;;;;;24.72;40.06;96663.44;2078759;28;20193;-60
2022/08/21 08:51:52;;;;;;;15.48;3.40;;;;;;;24.27;40.87;96657.22;2075234;28;20309;-60
2022/08/21 08:52:57;;;;;;;14.02;4.50;;;;;;;24.53;40.35;96667.13;2070573;28;20671;-61
2022/08/21 08:54:05;;;;;;;21.08;11.75;;;;;;;24.34;40.51;96664.63;2070709;28;20676;-60
2022/08/21 08:55:08;;;;;;;16.13;4.55;;;;;;;24.70;40.35;96661.94;2070609;28;20209;-60
2022/08/21 08:56:10;;;;;;;13.13;4.13;;;;;;;24.57;40.49;96656.94;2070798;28;20193;-60
2022/08/21 08:57:22;;;;;;;14.20;3.75;;;;;;;24.39;40.84;96662.31;2070671;28;20240;-61
2022/08/21 08:58:33;;;;;;;11.38;3.17;;;;;;;24.31;40.87;96667.63;2070857;28;20221;-62
2022/08/21 09:14:54;;;;;;;14.00;3.30;;;;;;;24.65;42.03;96662.41;2089717;28;20540;-68
2022/08/21 09:16:16;;;;;;;12.13;3.47;;;;;;;25.24;41.29;96653.69;2087287;28;20286;-67
2022/08/21 09:17:30;;;;;;;9.68;3.78;;;;;;;25.70;40.29;96653.38;2070122;28;20221;-66
2022/08/21 09:19:05;;;;;;;12.30;3.35;;;;;;;25.93;39.24;96653.59;2071011;28;20683;-63
2022/08/21 09:20:28;;;;;;;23.42;2.75;;;;;;;25.26;39.56;96649.03;2070614;28;20213;-62
2022/08/21 09:21:41;;;;;;;13.95;3.05;;;;;;;25.24;39.71;96646.53;2068090;28;20197;-63
2022/08/21 09:23:04;;;;;;;12.75;3.60;;;;;;;25.13;39.49;96645.97;2070329;28;20257;-63
2022/08/21 09:24:15;;;;;;;6.45;2.67;;;;;;;25.12;39.60;96655.00;2071088;28;20205;-65
2022/08/21 09:25:30;;;;;;;11.98;3.30;;;;;;;25.33;39.19;96644.72;2071249;28;20556;-63
2022/08/21 09:26:54;;;;;;;9.25;3.47;;;;;;;24.51;39.77;96638.91;2070090;28;20205;-63
2022/08/21 09:27:56;;;;;;;12.23;3.15;;;;;;;24.40;39.77;96648.00;2070810;28;20205;-60
2022/08/21 09:29:00;;;;;;;12.18;3.15;;;;;;;24.70;39.37;96644.06;2070927;28;20193;-63
2022/08/21 09:30:05;;;;;;;11.98;3.72;;;;;;;24.50;40.14;96638.06;2070959;28;20247;-62
2022/08/21 09:31:15;;;;;;;8.73;2.90;;;;;;;24.38;39.87;96637.50;2070728;28;20514;-65
2022/08/21 09:32:19;;;;;;;13.82;3.85;;;;;;;24.76;39.29;96643.44;2068616;28;20599;-64
2022/08/21 09:33:21;;;;;;;12.35;3.05;;;;;;;25.02;39.25;96636.41;2069800;28;20855;-62
2022/08/21 09:34:31;;;;;;;10.43;3.03;;;;;;;25.23;38.53;96641.31;2069908;28;20214;-67
2022/08/21 09:35:35;;;;;;;9.32;3.28;;;;;;;25.10;39.03;96639.09;2070377;28;20198;-63
2022/08/21 09:36:42;;;;;;;9.68;2.75;;;;;;;25.21;38.88;96638.81;2069042;28;20217;-66
2022/08/21 09:37:51;;;;;;;12.75;3.40;;;;;;;24.17;40.18;96629.00;2069315;28;20198;-68
2022/08/21 09:38:54;;;;;;;11.93;3.35;;;;;;;24.40;39.83;96632.81;2067638;28;20606;-68
2022/08/21 09:39:57;;;;;;;14.45;3.17;;;;;;;24.79;40.09;96628.94;2070933;28;20198;-66
2022/08/21 09:41:09;;;;;;;6.70;2.65;;;;;;;24.15;39.98;96637.16;2070165;28;20250;-64
2022/08/21 09:42:20;;;;;;;11.93;2.92;;;;;;;24.27;40.08;96632.41;2069839;28;20225;-65
2022/08/21 09:43:26;;;;;;;21.65;5.00;;;;;;;23.99;39.89;96629.84;2070736;28;20202;-67
2022/08/21 09:44:31;;;;;;;14.18;3.33;;;;;;;24.31;40.51;96635.59;2068093;28;20209;-67
2022/08/21 09:45:34;;;;;;;10.45;3.00;;;;;;;25.12;38.41;96634.44;2070626;28;20208;-63
2022/08/21 09:46:36;;;;;;;9.00;2.88;;;;;;;25.56;38.85;96634.31;2068106;28;20234;-62
2022/08/21 09:47:37;;;;;;;9.05;3.03;;;;;;;25.50;38.54;96634.13;2067840;28;20202;-66
2022/08/21 09:48:45;;;;;;;9.27;3.13;;;;;;;25.84;37.53;96635.84;2070653;28;20697;-66
2022/08/21 09:49:47;;;;;;;7.90;3.30;;;;;;;25.84;37.21;96634.03;2070425;28;20190;-63
2022/08/21 10:11:15;;;;;;;11.55;2.90;;;;;;;26.68;34.47;96625.00;2086016;28;20579;-63
2022/08/21 10:12:23;;;;;;;11.32;2.78;;;;;;;26.60;33.95;96614.31;2080552;28;20224;-63
2022/08/21 10:13:38;;;;;;;7.60;3.00;;;;;;;26.23;33.62;96620.03;2078152;28;20196;-64
2022/08/21 10:14:49;;;;;;;6.70;2.10;;;;;;;26.30;33.76;96614.84;2082157;28;20198;-63
2022/08/21 10:16:09;;;;;;;12.45;2.78;;;;;;;26.16;34.99;96615.53;2082751;28;20201;-64
2022/08/21 10:17:23;;;;;;;11.32;2.85;;;;;;;26.74;34.48;96616.34;2079558;28;20224;-64
2022/08/21 10:18:42;;;;;;;14.35;2.50;;;;;;;26.61;33.92;96613.31;2081398;28;20721;-65
2022/08/21 10:20:04;;;;;;;10.90;3.15;;;;;;;26.15;34.98;96621.88;2083054;28;20492;-63
2022/08/21 10:21:26;;;;;;;7.75;2.35;;;;;;;26.27;35.17;96617.88;2081799;28;20201;-63
2022/08/21 10:22:45;;;;;;;10.15;4.10;;;;;;;26.50;35.43;96619.84;2081692;28;20219;-63
2022/08/21 10:24:11;;;;;;;35.15;20.27;;;;;;;26.81;35.00;96613.81;2081060;28;20204;-63
2022/08/21 10:26:09;;;;;;;6.78;2.85;;;;;;;26.68;34.78;96611.63;2084658;28;20254;-63
2022/08/21 10:27:45;;;;;;;12.20;5.47;;;;;;;27.33;33.67;96615.13;2071671;28;20221;-63
2022/08/21 10:29:12;;;;;;;9.50;2.65;;;;;;;27.09;33.80;96608.03;2072774;28;20201;-64
2022/08/21 10:30:21;;;;;;;8.55;3.50;;;;;;;27.77;33.59;96605.66;2080617;28;20205;-64
2022/08/21 10:31:47;;;;;;;6.90;2.70;;;;;;;28.63;32.82;96605.47;2078960;28;20290;-64
2022/08/21 10:32:58;;;;;;;5.43;2.40;;;;;;;28.80;31.79;96609.69;2080423;28;20192;-64
2022/08/21 10:34:23;;;;;;;11.52;3.17;;;;;;;28.88;32.05;96603.41;2081293;28;20205;-63
2022/08/21 10:35:33;;;;;;;9.20;3.20;;;;;;;28.43;31.76;96602.47;2078476;28;20204;-63
2022/08/21 10:36:56;;;;;;;7.95;3.05;;;;;;;28.28;32.26;96602.47;2080097;28;20209;-63
2022/08/21 10:38:24;;;;;;;7.57;3.03;;;;;;;27.98;32.30;96589.75;2083220;28;20711;-63
2022/08/21 10:40:10;;;;;;;10.70;3.10;;;;;;;27.88;31.93;96594.53;2084013;28;20212;-63
2022/08/21 10:41:36;;;;;;;8.40;2.47;;;;;;;27.47;32.67;96598.31;2082739;28;20194;-63
2022/08/21 10:42:46;;;;;;;5.53;2.78;;;;;;;27.20;32.84;96595.06;2084276;28;20660;-63
2022/08/21 10:44:18;;;;;;;9.48;2.92;;;;;;;27.48;32.99;96593.78;2076683;28;20201;-63
2022/08/21 10:45:59;;;;;;;10.15;2.80;;;;;;;27.16;33.58;96595.56;2086022;28;21020;-64
2022/08/21 10:47:12;;;;;;;9.18;2.70;;;;;;;26.32;34.48;96593.25;2071235;28;20225;-64
2022/08/21 10:48:36;;;;;;;11.63;2.88;;;;;;;27.74;33.33;96593.44;2075951;28;20204;-64
2022/08/21 10:49:59;;;;;;;7.47;2.25;;;;;;;28.01;31.99;96597.44;2081589;28;20196;-65
2022/08/21 11:08:53;;;;;;;5.72;2.75;;;;;;;27.52;33.38;96584.38;2094385;27;20557;-62
2022/08/21 11:09:57;;;;;;;12.20;3.10;;;;;;;27.83;33.20;96578.13;2092712;28;20730;-62
2022/08/21 11:11:12;;;;;;;6.00;2.50;;;;;;;28.13;32.80;96576.41;2092689;28;20261;-65
2022/08/21 11:12:31;;;;;;;9.25;2.78;;;;;;;28.34;32.27;96578.41;2075405;28;20315;-62
2022/08/21 11:13:42;;;;;;;63.25;37.83;;;;;;;29.45;32.22;96579.56;2073035;28;20209;-62
2022/08/21 11:15:06;;;;;;;197.25;96.32;;;;;;;29.56;31.27;96573.69;2073241;28;20212;-62
2022/08/21 11:16:40;;;;;;;50.50;19.27;;;;;;;29.42;31.08;96574.53;2071776;28;20193;-63
2022/08/21 11:17:57;;;;;;;9.15;4.28;;;;;;;30.23;30.19;96577.03;2072723;28;20198;-63
2022/08/21 11:19:05;;;;;;;15.68;6.50;;;;;;;30.80;29.61;96577.03;2072154;28;20204;-63
2022/08/21 11:20:14;;;;;;;7.93;4.15;;;;;;;31.48;28.88;96579.03;2074438;28;20202;-64
2022/08/21 11:21:56;;;;;;;6.40;2.72;;;;;;;31.94;28.13;96568.56;2074359;28;20197;-63
2022/08/21 11:23:05;;;;;;;7.07;2.17;;;;;;;32.23;27.76;96579.00;2063356;28;20225;-63
2022/08/21 11:24:35;;;;;;;5.60;2.35;;;;;;;31.52;28.57;96571.38;2064911;28;20197;-63
2022/08/21 11:25:41;;;;;;;9.17;2.77;;;;;;;31.05;29.22;96580.06;2064797;28;20194;-63
2022/08/21 11:26:52;;;;;;;6.73;2.83;;;;;;;28.88;30.90;96567.66;2071638;28;20468;-63
2022/08/21 11:28:30;;;;;;;11.97;3.40;;;;;;;27.87;32.24;96571.38;2073911;28;20422;-63
2022/08/21 11:29:39;;;;;;;10.13;2.47;;;;;;;27.65;32.91;96568.53;2073100;28;20467;-63
2022/08/21 11:30:56;;;;;;;5.53;2.35;;;;;;;28.12;32.69;96568.56;2072268;28;20444;-63
2022/08/21 11:32:10;;;;;;;13.68;2.97;;;;;;;28.45;31.96;96569.06;2068324;28;20253;-63
2022/08/21 11:33:34;;;;;;;5.77;2.53;;;;;;;28.44;32.32;96567.41;2057759;28;20205;-63
2022/08/21 11:34:57;;;;;;;8.90;3.10;;;;;;;28.30;32.25;96560.16;2060921;28;20928;-63
2022/08/21 11:36:08;;;;;;;8.40;2.60;;;;;;;27.36;33.60;96574.53;2065408;28;20432;-63
2022/08/21 11:37:21;;;;;;;6.70;2.80;;;;;;;27.32;33.85;96570.56;2066075;28;20824;-63
2022/08/21 11:54:37;;;;;;;6.93;2.60;;;;;;;29.31;30.01;96557.06;2086067;28;20556;-63
2022/08/21 11:55:44;;;;;;;16.35;4.95;;;;;;;29.23;29.52;96551.75;2078550;28;20193;-64
2022/08/21 11:56:53;;;;;;;6.82;2.50;;;;;;;29.41;29.66;96559.44;2075847;28;20581;-64
2022/08/21 11:58:21;;;;;;;5.68;2.88;;;;;;;29.41;29.21;96546.81;2070838;28;20201;-63
2022/08/21 11:59:54;;;;;;;5.72;2.60;;;;;;;29.91;28.79;96554.19;2069807;28;20607;-63
2022/08/21 12:01:02;;;;;;;10.52;2.55;;;;;;;30.37;28.46;96550.19;2070064;28;20201;-63
2022/08/21 12:02:13;;;;;;;5.65;2.05;;;;;;;30.25;27.88;96556.13;2071139;28;20228;-62
2022/08/21 12:03:31;;;;;;;5.75;2.95;;;;;;;28.11;30.28;96540.88;2071886;28;20225;-63
2022/08/21 12:04:41;;;;;;;7.72;2.90;;;;;;;28.84;30.17;96546.50;2070812;28;20656;-63
2022/08/21 12:05:58;;;;;;;8.38;2.22;;;;;;;29.13;29.73;96546.69;2071286;28;20588;-63
2022/08/21 12:07:13;;;;;;;5.93;2.80;;;;;;;29.11;29.36;96549.53;2070495;28;20221;-62
2022/08/21 12:08:28;;;;;;;11.27;2.78;;;;;;;26.88;33.11;96551.34;2072147;28;20197;-62
2022/08/21 12:09:34;;;;;;;6.45;2.63;;;;;;;27.43;33.25;96537.19;2072204;28;20190;-62
2022/08/21 12:10:42;;;;;;;5.15;2.20;;;;;;;28.36;30.38;96548.69;2072493;28;20221;-62
2022/08/21 12:11:47;;;;;;;5.38;2.65;;;;;;;28.73;30.08;96544.28;2071056;28;20217;-62
2022/08/21 12:12:50;;;;;;;9.68;2.30;;;;;;;29.11;30.21;96538.78;2070685;28;20304;-64
2022/08/21 12:14:06;;;;;;;6.25;2.60;;;;;;;30.10;29.41;96550.00;2072355;28;20230;-62
2022/08/21 12:15:24;;;;;;;8.40;2.90;;;;;;;31.38;28.85;96541.66;2072396;28;20239;-63
2022/08/21 12:16:39;;;;;;;12.05;3.15;;;;;;;32.46;28.26;96547.22;2072094;28;20217;-62
2022/08/21 12:18:00;;;;;;;10.32;3.00;;;;;;;32.60;27.21;96534.50;2071498;28;20200;-63
2022/08/21 12:19:27;;;;;;;17.05;2.80;;;;;;;32.31;27.58;96539.31;2070362;28;20213;-63
2022/08/21 12:20:39;;;;;;;9.40;2.77;;;;;;;33.18;27.33;96536.44;2061778;28;20650;-63
2022/08/21 12:21:57;;;;;;;11.67;2.80;;;;;;;33.87;26.23;96536.69;2070094;28;20478;-63
2022/08/21 12:23:04;;;;;;;4.60;1.93;;;;;;;34.16;24.94;96542.53;2071134;28;20426;-62
2022/08/21 12:24:15;;;;;;;6.90;2.37;;;;;;;34.46;24.93;96550.84;2069137;28;20442;-63
2022/08/21 12:25:19;;;;;;;9.57;2.80;;;;;;;33.52;24.96;96535.25;2069349;28;20915;-64
2022/08/21 12:26:30;;;;;;;12.77;2.97;;;;;;;30.18;28.73;96528.28;2070954;28;20494;-64
2022/08/21 12:27:50;;;;;;;32.33;21.00;;;;;;;31.20;27.53;96534.13;2071040;28;20435;-64
2022/08/21 12:29:04;;;;;;;16.73;11.40;;;;;;;32.75;26.65;96526.16;2071104;28;20427;-64
2022/08/21 12:30:39;;;;;;;13.23;6.77;;;;;;;33.19;26.57;96535.34;2070406;28;21187;-63
2022/08/21 12:31:57;;;;;;;7.80;2.90;;;;;;;32.07;26.78;96526.22;2069272;28;20439;-64
2022/08/21 12:33:02;;;;;;;8.27;2.97;;;;;;;31.13;27.71;96522.47;2068415;28;20423;-64
2022/08/21 12:34:10;;;;;;;5.20;2.10;;;;;;;28.95;30.49;96525.56;2070876;28;20435;-63
2022/08/21 12:35:23;;;;;;;10.67;2.60;;;;;;;29.57;30.15;96524.25;2071157;28;20439;-63
2022/08/21 12:36:43;;;;;;;8.07;2.80;;;;;;;28.89;31.05;96516.41;2070079;28;20427;-64
2022/08/21 12:37:49;;;;;;;7.53;2.43;;;;;;;27.11;32.81;96517.56;2069913;28;20430;-63
2022/08/21 12:38:59;;;;;;;4.33;2.07;;;;;;;28.21;32.21;96513.78;2071161;28;20442;-63
2022/08/21 12:40:03;;;;;;;8.43;2.37;;;;;;;29.13;31.07;96517.94;2070566;28;20430;-67
2022/08/21 12:41:18;;;;;;;5.93;2.38;;;;;;;29.44;30.96;96514.16;2070908;28;20428;-64
2022/08/21 12:42:23;;;;;;;18.27;3.03;;;;;;;29.72;30.51;96517.97;2070465;28;20221;-64
2022/08/21 12:43:34;;;;;;;6.33;2.70;;;;;;;29.62;29.89;96511.06;2069029;28;20434;-64
2022/08/21 12:44:45;;;;;;;9.88;2.80;;;;;;;29.50;30.02;96523.34;2070976;28;20987;-64
2022/08/21 12:45:50;;;;;;;8.80;2.63;;;;;;;29.84;30.07;96519.13;2069079;28;20194;-64
2022/08/21 12:47:03;;;;;;;14.10;2.40;;;;;;;29.87;30.08;96518.72;2070606;28;20463;-64
2022/08/21 12:48:10;;;;;;;8.43;2.60;;;;;;;29.85;29.59;96517.25;2070808;28;20870;-64
2022/08/21 12:49:21;;;;;;;6.93;2.40;;;;;;;29.84;28.78;96515.56;2070850;28;20450;-64
2022/08/21 12:50:50;;;;;;;7.10;2.37;;;;;;;30.14;28.50;96500.13;2070953;28;20547;-64
2022/08/21 12:52:19;;;;;;;5.40;2.80;;;;;;;30.78;27.62;96517.13;2070385;28;20462;-65
2022/08/21 12:53:38;;;;;;;7.27;2.23;;;;;;;31.13;27.91;96525.16;2068138;28;20430;-64
2022/08/21 12:54:43;;;;;;;7.97;2.63;;;;;;;31.83;27.03;96513.31;2070692;28;21154;-64
2022/08/21 12:55:44;;;;;;;7.37;2.33;;;;;;;32.77;26.21;96521.38;2068521;28;20477;-63
2022/08/21 12:56:56;;;;;;;7.83;2.50;;;;;;;33.13;25.68;96518.13;2070521;28;20467;-64
2022/08/21 12:57:57;;;;;;;5.37;2.40;;;;;;;32.76;25.53;96515.16;2070876;28;20820;-65
2022/08/21 12:59:07;;;;;;;9.00;2.30;;;;;;;33.14;26.05;96525.22;2070814;28;20858;-64
2022/08/21 13:00:12;;;;;;;8.67;2.47;;;;;;;33.60;25.69;96522.47;2070411;28;20424;-64
2022/08/21 13:01:36;;;;;;;4.60;1.93;;;;;;;33.21;25.89;96527.88;2070579;28;20473;-64
2022/08/21 13:02:47;;;;;;;10.20;2.80;;;;;;;32.44;26.21;96523.06;2069845;28;20478;-64
2022/08/21 13:03:50;;;;;;;14.83;2.73;;;;;;;32.16;26.09;96499.81;2068694;28;20485;-64
2022/08/21 13:05:07;;;;;;;8.23;2.50;;;;;;;29.74;28.76;96519.44;2070148;28;20455;-64
2022/08/21 13:06:16;;;;;;;7.23;2.40;;;;;;;30.06;28.76;96511.84;2064883;28;20432;-64
2022/08/21 13:07:30;;;;;;;10.20;3.43;;;;;;;30.17;28.86;96515.03;2064752;28;20482;-64
2022/08/21 13:08:36;;;;;;;6.83;2.40;;;;;;;30.07;29.19;96510.03;2065387;28;20424;-65
2022/08/21 13:09:54;;;;;;;8.30;2.53;;;;;;;30.27;28.95;96513.69;2065630;28;20876;-65
2022/08/21 13:11:04;;;;;;;6.27;2.60;;;;;;;29.94;29.32;96518.78;2065197;28;20457;-64
2022/08/21 13:12:18;;;;;;;10.00;2.47;;;;;;;29.75;30.17;96514.88;2063916;28;20464;-65
2022/08/21 13:13:21;;;;;;;7.67;2.70;;;;;;;29.76;30.28;96514.69;2065400;28;20472;-65
2022/08/21 13:27:36;;;;;;;11.17;3.20;;;;;;;32.50;27.00;96518.72;2078554;28;20580;-64
2022/08/21 13:28:38;;;;;;;7.37;2.07;;;;;;;32.35;26.59;96516.25;2078236;28;20437;-65
2022/08/21 13:29:39;;;;;;;5.33;2.20;;;;;;;31.38;27.13;96511.97;2071901;28;20420;-65
2022/08/21 13:30:49;;;;;;;8.10;3.00;;;;;;;31.58;27.00;96511.19;2069900;28;21134;-65
2022/08/21 13:31:54;;;;;;;10.07;2.90;;;;;;;31.91;27.13;96516.66;2062849;28;20539;-64
2022/08/21 13:32:59;;;;;;;5.63;2.20;;;;;;;31.87;26.66;96519.97;2054811;28;20429;-65
2022/08/21 13:34:01;;;;;;;4.03;2.57;;;;;;;32.19;26.53;96514.81;2053368;28;20863;-65
2022/08/21 13:35:21;;;;;;;5.47;2.70;;;;;;;32.71;26.09;96512.25;2058244;28;20896;-65
2022/08/21 13:36:35;;;;;;;7.60;2.83;;;;;;;32.30;25.97;96514.16;2056436;28;20452;-65
2022/08/21 13:37:40;;;;;;;8.20;2.80;;;;;;;32.47;25.47;96509.16;2054377;28;20422;-65
2022/08/21 13:38:43;;;;;;;6.17;2.13;;;;;;;32.44;25.36;96501.47;2053671;28;20464;-65
2022/08/21 13:39:50;;;;;;;5.80;2.60;;;;;;;31.65;26.50;96492.34;2055309;28;20775;-64
2022/08/21 13:41:29;;;;;;;7.80;2.90;;;;;;;31.69;26.11;96504.38;2054521;28;20487;-66
2022/08/21 13:42:33;;;;;;;9.60;2.27;;;;;;;32.15;26.55;96497.31;2050614;28;20457;-65
2022/08/21 13:43:36;;;;;;;10.93;3.17;;;;;;;32.40;26.29;96490.28;2070535;28;20431;-65
2022/08/21 13:44:46;;;;;;;7.20;2.70;;;;;;;32.64;25.90;96497.91;2068368;28;20980;-65
2022/08/21 13:45:53;;;;;;;7.93;2.60;;;;;;;33.24;24.76;96500.38;2054723;28;20429;-66
2022/08/21 13:46:55;;;;;;;4.27;2.37;;;;;;;29.19;28.51;96488.63;2061406;28;20456;-66
2022/08/21 13:48:00;;;;;;;9.77;2.30;;;;;;;28.62;29.47;96493.69;2062069;28;20797;-66
2022/08/21 13:49:09;;;;;;;10.53;2.87;;;;;;;29.64;28.25;96494.72;2054923;28;20465;-65
2022/08/21 13:50:13;;;;;;;7.07;2.70;;;;;;;29.74;28.26;96492.53;2054473;28;20480;-65
2022/08/21 13:51:15;;;;;;;5.90;2.13;;;;;;;30.97;27.10;96496.69;2055078;28;20960;-65
2022/08/21 13:52:21;;;;;;;9.70;3.17;;;;;;;31.42;26.64;96488.94;2054595;28;20461;-65
2022/08/21 13:53:45;;;;;;;9.00;2.43;;;;;;;31.87;25.90;96488.41;2054293;28;20433;-65
2022/08/21 13:54:57;;;;;;;6.37;2.50;;;;;;;32.24;26.00;96491.53;2054945;28;20448;-65
2022/08/21 13:55:59;;;;;;;6.93;2.63;;;;;;;32.24;25.60;96477.22;2055112;28;20440;-65
2022/08/21 13:57:01;;;;;;;6.97;2.60;;;;;;;33.12;25.53;96491.31;2053856;28;20499;-65
2022/08/21 13:58:04;;;;;;;8.67;2.77;;;;;;;33.09;24.67;96476.34;2055239;28;20433;-65
2022/08/21 13:59:06;;;;;;;6.13;2.37;;;;;;;32.70;24.91;96487.06;2055066;28;20452;-65
2022/08/21 14:00:26;;;;;;;6.17;2.37;;;;;;;32.88;25.16;96485.59;2054963;28;20436;-66
2022/08/21 14:01:36;;;;;;;5.47;2.53;;;;;;;33.25;25.12;96483.09;2053509;28;20437;-65
2022/08/21 14:02:41;;;;;;;7.93;2.47;;;;;;;33.60;24.76;96490.00;2053934;28;20514;-65
2022/08/21 14:03:47;;;;;;;5.70;2.37;;;;;;;33.73;24.43;96486.41;2054991;28;20432;-65
2022/08/21 14:05:01;;;;;;;4.63;2.10;;;;;;;34.06;24.24;96493.44;2054839;28;20429;-65
2022/08/21 14:06:18;;;;;;;6.10;2.80;;;;;;;33.64;24.45;96492.06;2054430;28;20435;-65
2022/08/21 14:07:26;;;;;;;6.33;2.80;;;;;;;33.25;24.88;96485.81;2054108;28;21200;-66
2022/08/21 14:08:33;;;;;;;8.17;2.50;;;;;;;33.65;24.87;96490.16;2054134;28;20433;-66
2022/08/21 14:09:44;;;;;;;7.90;2.53;;;;;;;33.48;24.58;96488.00;2053823;28;20468;-66
2022/08/21 14:10:50;;;;;;;3.93;1.60;;;;;;;33.08;25.15;96484.66;2054975;28;20430;-65
2022/08/21 14:12:01;;;;;;;5.40;2.70;;;;;;;33.26;24.81;96486.66;2052618;28;20461;-65
2022/08/21 14:13:05;;;;;;;8.40;2.40;;;;;;;33.48;24.83;96487.16;2054930;28;20436;-65
2022/08/21 14:14:22;;;;;;;10.13;3.10;;;;;;;33.17;24.66;96477.97;2054985;28;20462;-66
2022/08/21 14:15:28;;;;;;;12.37;2.00;;;;;;;31.85;26.38;96477.00;2054242;28;20916;-65
2022/08/21 14:16:43;;;;;;;5.63;2.50;;;;;;;33.26;25.11;96476.66;2054506;28;20467;-66
2022/08/21 14:17:45;;;;;;;5.80;2.00;;;;;;;33.65;24.37;96477.47;2053760;28;20421;-65
2022/08/21 14:18:59;;;;;;;5.80;2.40;;;;;;;32.68;25.42;96472.09;2054856;28;20524;-65
2022/08/21 14:20:07;;;;;;;7.03;2.83;;;;;;;33.42;25.21;96475.34;2055001;28;21420;-66
2022/08/21 14:21:09;;;;;;;4.67;2.10;;;;;;;34.08;24.55;96481.34;2054235;28;20992;-66
2022/08/21 14:22:49;;;;;;;8.80;2.30;;;;;;;34.16;23.52;96472.09;2054029;28;20465;-66
2022/08/21 14:24:10;;;;;;;4.70;2.10;;;;;;;34.56;23.61;96479.03;2053455;28;20831;-65
2022/08/21 14:25:37;;;;;;;10.50;2.30;;;;;;;33.68;23.98;96482.44;2053504;28;20440;-66
2022/08/21 14:26:55;;;;;;;10.37;2.47;;;;;;;32.95;24.78;96477.44;2043629;29;20468;-66
2022/08/21 14:28:14;;;;;;;7.60;2.63;;;;;;;32.95;25.19;96475.59;2047816;28;21048;-65
2022/08/21 14:29:23;;;;;;;9.77;2.83;;;;;;;33.91;24.64;96475.63;2053368;28;20428;-65
2022/08/21 14:30:35;;;;;;;8.03;2.33;;;;;;;34.02;24.25;96474.91;2053531;28;20437;-66
2022/08/21 14:31:37;;;;;;;5.43;2.17;;;;;;;33.51;24.31;96474.03;2052949;28;20429;-66
2022/08/21 14:32:45;;;;;;;6.60;1.60;;;;;;;34.33;23.70;96466.91;2052315;28;20429;-65
2022/08/21 14:33:47;;;;;;;5.10;2.80;;;;;;;34.41;23.39;96471.25;2053259;28;20433;-66
2022/08/21 14:34:49;;;;;;;4.73;2.10;;;;;;;33.45;24.03;96463.28;2053274;28;20840;-66
2022/08/21 14:35:50;;;;;;;5.30;2.37;;;;;;;33.90;23.77;96468.56;2053342;28;20923;-66
2022/08/21 14:36:52;;;;;;;3.17;2.33;;;;;;;34.12;23.94;96460.03;2044946;29;20563;-66
2022/08/21 14:37:54;;;;;;;7.67;2.00;;;;;;;33.93;24.05;96468.13;2045373;29;20423;-66
2022/08/21 14:38:55;;;;;;;9.70;2.83;;;;;;;32.65;25.37;96467.97;2048464;28;20434;-66
2022/08/21 14:39:57;;;;;;;6.03;2.23;;;;;;;33.19;25.47;96462.34;2040150;29;20792;-66
2022/08/21 14:41:03;;;;;;;5.73;2.20;;;;;;;33.50;25.02;96461.56;2039728;29;21165;-66
2022/08/21 14:42:05;;;;;;;4.17;2.00;;;;;;;33.66;24.66;96465.63;2046301;29;20469;-66
2022/08/21 14:43:08;;;;;;;4.83;2.47;;;;;;;34.08;24.68;96465.09;2048023;29;20440;-67
2022/08/21 14:44:10;;;;;;;4.40;2.10;;;;;;;33.41;24.63;96457.47;2048037;29;20434;-66
2022/08/21 14:45:26;;;;;;;4.27;2.37;;;;;;;32.97;24.80;96465.38;2048109;29;20426;-66
2022/08/21 14:46:29;;;;;;;10.13;2.90;;;;;;;30.00;27.83;96463.38;2046734;29;21048;-66
2022/08/21 14:47:31;;;;;;;4.87;2.30;;;;;;;31.61;26.54;96456.00;2047078;29;20838;-66
2022/08/21 14:48:32;;;;;;;7.83;2.27;;;;;;;32.02;25.66;96466.63;2047948;29;20819;-66
2022/08/21 14:49:34;;;;;;;6.37;2.47;;;;;;;32.83;25.06;96463.78;2047675;29;20422;-66
2022/08/21 14:50:36;;;;;;;6.00;2.40;;;;;;;33.35;24.22;96459.16;2040183;29;20430;-66
2022/08/21 14:51:38;;;;;;;4.47;2.13;;;;;;;32.87;24.57;96462.28;2039716;29;20438;-66
2022/08/21 14:52:55;;;;;;;4.60;2.30;;;;;;;32.68;24.86;96456.75;2047882;29;20513;-66
2022/08/21 14:53:56;;;;;;;4.40;2.10;;;;;;;32.91;25.08;96460.81;2048029;29;20453;-66
2022/08/21 14:54:58;;;;;;;5.43;2.17;;;;;;;33.73;24.49;96462.03;2048098;29;20484;-66
2022/08/21 14:56:05;;;;;;;5.33;2.20;;;;;;;33.69;23.91;96458.94;2049156;29;20952;-66
2022/08/21 14:57:09;;;;;;;3.77;2.07;;;;;;;32.82;24.98;96459.41;2048687;28;20481;-66
2022/08/21 14:58:11;;;;;;;4.20;1.97;;;;;;;33.37;24.61;96453.53;2049010;29;20426;-65